createdAt,value
2019-02-05T00:01:45.172Z,9.90
2019-02-05T00:04:12.156Z,10.03
2019-02-05T00:06:39.099Z,10.17
2019-02-05T00:09:08.139Z,10.10
2019-02-05T00:11:35.249Z,10.10
2019-02-05T00:14:02.140Z,10.03
2019-02-05T00:16:29.015Z,10.50
2019-02-05T00:18:56.300Z,9.63
2019-02-05T00:21:23.244Z,10.67
2019-02-05T00:23:50.218Z,10.00
2019-02-05T00:26:17.084Z,10.70
2019-02-05T00:28:43.936Z,10.60
2019-02-05T00:31:10.791Z,10.87
2019-02-05T00:33:37.763Z,10.93
2019-02-05T00:36:04.611Z,11.37
2019-02-05T00:38:31.594Z,11.53
2019-02-05T00:40:58.595Z,10.80
2019-02-05T00:43:25.472Z,10.43
2019-02-05T00:45:52.472Z,11.13
2019-02-05T00:48:19.451Z,10.70
2019-02-05T00:50:46.318Z,11.53
2019-02-05T00:53:13.189Z,11.53
2019-02-05T00:55:40.342Z,11.17
2019-02-05T00:58:07.223Z,11.40
2019-02-05T01:00:34.402Z,12.27
2019-02-05T01:03:01.695Z,11.83
2019-02-05T01:05:28.509Z,11.30
2019-02-05T01:07:58.168Z,11.03
2019-02-05T01:10:26.084Z,12.07
2019-02-05T01:12:53.807Z,11.23
2019-02-05T01:15:21.771Z,10.73
2019-02-05T01:17:48.639Z,11.10
2019-02-05T01:20:16.487Z,11.60
2019-02-05T01:22:43.654Z,11.40
2019-02-05T01:25:10.912Z,11.17
2019-02-05T01:27:37.939Z,12.50
2019-02-05T01:30:06.810Z,11.37
2019-02-05T01:32:33.674Z,12.00
2019-02-05T01:35:00.641Z,11.13
2019-02-05T01:37:27.615Z,12.13
2019-02-05T01:39:54.491Z,11.53
2019-02-05T01:42:21.540Z,12.57
2019-02-05T01:44:48.446Z,11.60
2019-02-05T01:47:15.592Z,13.37
2019-02-05T01:49:42.869Z,11.97
2019-02-05T01:52:09.715Z,11.13
2019-02-05T01:54:36.527Z,12.73
2019-02-05T01:57:03.948Z,13.40
2019-02-05T01:59:30.710Z,12.07
2019-02-05T02:01:57.551Z,12.73
2019-02-05T02:04:24.567Z,13.13
2019-02-05T02:06:51.730Z,12.80
2019-02-05T02:09:18.587Z,12.43
2019-02-05T02:11:45.435Z,13.33
2019-02-05T02:14:12.171Z,12.47
2019-02-05T02:16:38.935Z,12.40
2019-02-05T02:19:05.835Z,13.17
2019-02-05T02:21:32.715Z,13.97
2019-02-05T02:23:59.622Z,14.07
2019-02-05T02:26:26.331Z,13.60
2019-02-05T02:28:53.203Z,13.00
2019-02-05T02:31:20.066Z,13.53
2019-02-05T02:33:48.355Z,13.37
2019-02-05T02:36:17.912Z,13.40
2019-02-05T02:38:45.009Z,13.10
2019-02-05T02:41:19.620Z,13.47
2019-02-05T02:43:46.596Z,13.43
2019-02-05T02:46:13.438Z,14.37
2019-02-05T02:48:40.354Z,12.87
2019-02-05T02:51:07.228Z,14.00
2019-02-05T02:53:33.968Z,13.17
2019-02-05T02:56:00.895Z,13.87
2019-02-05T02:58:28.132Z,14.57
2019-02-05T03:00:55.147Z,12.67
2019-02-05T03:03:22.123Z,13.70
2019-02-05T03:05:48.978Z,13.50
2019-02-05T03:08:15.829Z,13.70
2019-02-05T03:10:42.743Z,13.83
2019-02-05T03:13:09.480Z,13.97
2019-02-05T03:15:36.307Z,12.73
2019-02-05T03:18:03.373Z,13.07
2019-02-05T03:20:30.513Z,13.37
2019-02-05T03:22:57.355Z,13.53
2019-02-05T03:25:24.837Z,13.80
2019-02-05T03:27:53.881Z,14.07
2019-02-05T03:30:21.653Z,14.43
2019-02-05T03:32:49.296Z,14.20
2019-02-05T03:35:16.632Z,14.23
2019-02-05T03:37:44.391Z,15.47
2019-02-05T03:40:44.445Z,14.40
2019-02-05T03:43:11.416Z,13.73
2019-02-05T03:45:38.456Z,14.07
2019-02-05T03:48:05.572Z,14.60
2019-02-05T03:50:37.323Z,15.27
2019-02-05T03:53:05.295Z,14.70
2019-02-05T03:56:14.975Z,15.07
2019-02-05T03:59:04.885Z,13.67
2019-02-05T04:02:22.736Z,15.33
2019-02-05T04:05:42.691Z,15.40
2019-02-05T04:08:35.859Z,15.37
2019-02-05T04:11:27.219Z,13.67
2019-02-05T04:14:18.807Z,13.93
2019-02-05T04:17:21.200Z,14.23
2019-02-05T04:20:12.219Z,14.93
2019-02-05T04:23:25.810Z,14.33
2019-02-05T04:26:21.776Z,14.23
2019-02-05T04:29:44.497Z,15.27
2019-02-05T04:32:40.362Z,14.23
2019-02-05T04:36:04.707Z,14.50
2019-02-05T04:39:19.700Z,15.20
2019-02-05T04:42:49.808Z,14.93
2019-02-05T04:45:57.547Z,16.17
2019-02-05T04:48:56.301Z,13.43
2019-02-05T04:51:46.612Z,15.00
2019-02-05T04:54:50.347Z,13.30
2019-02-05T04:57:57.464Z,15.40
2019-02-05T05:00:54.650Z,15.00
2019-02-05T05:03:48.199Z,15.30
2019-02-05T05:07:03.060Z,14.40
2019-02-05T05:09:47.883Z,14.23
2019-02-05T05:12:14.740Z,14.93
2019-02-05T05:14:41.977Z,13.90
2019-02-05T05:17:08.847Z,14.23
2019-02-05T05:19:35.676Z,14.90
2019-02-05T05:22:03.062Z,14.63
2019-02-05T05:24:30.237Z,15.43
2019-02-05T05:26:57.191Z,14.83
2019-02-05T05:29:24.343Z,14.93
2019-02-05T05:31:51.916Z,14.33
2019-02-05T05:34:19.243Z,14.80
2019-02-05T05:36:49.217Z,15.03
2019-02-05T05:39:16.279Z,15.47
2019-02-05T05:41:43.242Z,15.17
2019-02-05T05:44:10.071Z,14.33
2019-02-05T05:46:36.918Z,15.70
2019-02-05T05:49:03.749Z,15.17
2019-02-05T05:51:30.467Z,14.90
2019-02-05T05:53:57.603Z,16.47
2019-02-05T05:56:24.358Z,16.07
2019-02-05T05:58:51.374Z,19.23
2019-02-05T06:01:18.109Z,16.33
2019-02-05T06:03:45.084Z,15.83
2019-02-05T06:06:11.955Z,15.63
2019-02-05T06:08:38.829Z,19.35
2019-02-05T06:11:07.719Z,15.43
2019-02-05T06:13:34.935Z,15.47
2019-02-05T06:16:01.824Z,16.40
2019-02-05T06:18:28.556Z,14.73
2019-02-05T06:20:55.423Z,15.13
2019-02-05T06:23:22.383Z,15.67
2019-02-05T06:25:49.444Z,15.53
2019-02-05T06:28:16.398Z,15.60
2019-02-05T06:30:43.399Z,15.10
2019-02-05T06:33:10.787Z,15.87
2019-02-05T06:35:37.673Z,15.80
2019-02-05T06:38:04.644Z,28.23
2019-02-05T06:40:31.538Z,17.37
2019-02-05T06:42:58.638Z,16.37
2019-02-05T06:45:25.530Z,15.50
2019-02-05T06:47:52.387Z,17.60
2019-02-05T06:50:19.275Z,15.40
2019-02-05T06:52:46.103Z,16.93
2019-02-05T06:55:13.922Z,16.40
2019-02-05T06:57:40.987Z,16.87
2019-02-05T07:00:12.044Z,14.90
2019-02-05T07:02:39.210Z,16.17
2019-02-05T07:05:07.575Z,15.17
2019-02-05T07:07:34.479Z,15.87
2019-02-05T07:10:01.363Z,15.83
2019-02-05T07:12:28.467Z,15.27
2019-02-05T07:14:55.431Z,15.73
2019-02-05T07:17:22.227Z,16.90
2019-02-05T07:19:48.973Z,15.03
2019-02-05T07:22:15.863Z,14.73
2019-02-05T07:24:42.751Z,14.90
2019-02-05T07:27:09.483Z,14.60
2019-02-05T07:29:36.447Z,15.20
2019-02-05T07:32:03.891Z,16.50
2019-02-05T07:34:30.652Z,15.40
2019-02-05T07:36:57.499Z,14.67
2019-02-05T07:39:27.466Z,15.50
2019-02-05T07:41:53.120Z,15.77
2019-02-05T07:44:19.852Z,15.60
2019-02-05T07:46:46.591Z,14.93
2019-02-05T07:49:13.587Z,14.93
2019-02-05T07:51:40.420Z,15.70
2019-02-05T07:54:07.355Z,16.40
2019-02-05T07:56:34.639Z,16.43
2019-02-05T07:59:09.857Z,16.00
2019-02-05T08:01:30.256Z,16.33
2019-02-05T08:03:56.992Z,14.50
2019-02-05T08:06:23.995Z,14.57
2019-02-05T08:08:51.040Z,15.27
2019-02-05T08:11:17.875Z,14.97
2019-02-05T08:13:44.635Z,16.00
2019-02-05T08:16:11.547Z,15.93
2019-02-05T08:18:38.456Z,16.03
2019-02-05T08:21:05.595Z,15.47
2019-02-05T08:23:32.384Z,15.53
2019-02-05T08:25:59.119Z,15.63
2019-02-05T08:28:25.911Z,16.20
2019-02-05T08:30:52.654Z,15.83
2019-02-05T08:33:19.520Z,16.77
2019-02-05T08:35:46.503Z,15.57
2019-02-05T08:38:13.559Z,16.17
2019-02-05T08:40:42.200Z,15.53
2019-02-05T08:43:09.254Z,16.40
2019-02-05T08:45:37.166Z,15.60
2019-02-05T08:48:05.072Z,16.67
2019-02-05T08:50:32.040Z,15.53
2019-02-05T08:52:58.975Z,14.70
2019-02-05T08:55:26.218Z,15.07
2019-02-05T08:57:54.959Z,14.60
2019-02-05T09:00:23.962Z,17.50
2019-02-05T09:02:51.066Z,15.63
2019-02-05T09:05:18.022Z,15.50
2019-02-05T09:07:44.871Z,17.53
2019-02-05T09:10:17.677Z,45.80
2019-02-05T09:12:44.611Z,15.00
2019-02-05T09:15:11.566Z,16.03
2019-02-05T09:17:38.571Z,16.63
2019-02-05T09:20:08.438Z,16.20
2019-02-05T09:22:35.255Z,14.43
2019-02-05T09:25:02.387Z,16.30
2019-02-05T09:27:29.257Z,16.70
2019-02-05T09:29:56.131Z,16.00
2019-02-05T09:32:22.946Z,16.30
2019-02-05T09:34:49.955Z,16.43
2019-02-05T09:37:16.819Z,15.13
2019-02-05T09:39:44.131Z,15.60
2019-02-05T09:42:11.216Z,14.93
2019-02-05T09:44:38.066Z,17.37
2019-02-05T09:47:05.003Z,15.17
2019-02-05T09:49:31.756Z,15.80
2019-02-05T09:51:58.595Z,15.87
2019-02-05T09:54:25.586Z,15.90
2019-02-05T09:56:52.335Z,16.50
2019-02-05T09:59:19.040Z,15.97
2019-02-05T10:01:46.419Z,15.67
2019-02-05T10:04:13.462Z,16.70
2019-02-05T10:06:40.319Z,16.20
2019-02-05T10:09:07.455Z,16.57
2019-02-05T10:11:34.414Z,15.53
2019-02-05T10:14:01.135Z,16.40
2019-02-05T10:16:27.976Z,15.33
2019-02-05T10:18:55.062Z,16.63
2019-02-05T10:21:22.023Z,16.27
2019-02-05T10:23:49.267Z,15.57
2019-02-05T10:26:16.115Z,15.00
2019-02-05T10:28:42.859Z,16.37
2019-02-05T10:31:09.713Z,14.67
2019-02-05T10:33:36.814Z,15.17
2019-02-05T10:36:04.087Z,15.63
2019-02-05T10:38:30.983Z,14.90
2019-02-05T10:40:57.855Z,15.47
2019-02-05T10:43:25.182Z,16.37
2019-02-05T10:45:52.103Z,16.17
2019-02-05T10:48:18.971Z,15.40
2019-02-05T10:50:45.895Z,15.63
2019-02-05T10:53:12.887Z,16.93
2019-02-05T10:55:39.823Z,16.40
2019-02-05T10:58:07.683Z,17.20
2019-02-05T11:00:35.141Z,17.23
2019-02-05T11:03:07.649Z,16.77
2019-02-05T11:05:34.811Z,16.40
2019-02-05T11:08:01.773Z,16.13
2019-02-05T11:10:28.915Z,15.63
2019-02-05T11:12:55.944Z,15.37
2019-02-05T11:15:25.241Z,16.30
2019-02-05T11:17:52.259Z,15.20
2019-02-05T11:20:21.159Z,14.13
2019-02-05T11:22:48.523Z,16.20
2019-02-05T11:25:15.655Z,14.47
2019-02-05T11:27:42.520Z,14.90
2019-02-05T11:30:20.327Z,14.90
2019-02-05T11:32:44.604Z,14.57
2019-02-05T11:35:11.607Z,15.33
2019-02-05T11:37:38.402Z,14.53
2019-02-05T11:40:07.539Z,15.43
2019-02-05T11:42:34.544Z,14.57
2019-02-05T11:45:01.281Z,14.90
2019-02-05T11:47:28.137Z,14.33
2019-02-05T11:49:54.886Z,14.33
2019-02-05T11:52:21.739Z,13.77
2019-02-05T11:54:48.602Z,14.00
2019-02-05T11:57:15.603Z,12.97
2019-02-05T11:59:42.518Z,14.43
2019-02-05T12:02:09.756Z,14.47
2019-02-05T12:04:36.596Z,14.63
2019-02-05T12:07:03.839Z,14.47
2019-02-05T12:09:31.100Z,13.70
2019-02-05T12:11:57.936Z,14.23
2019-02-05T12:14:24.703Z,13.83
2019-02-05T12:16:52.450Z,14.97
2019-02-05T12:19:22.443Z,15.67
2019-02-05T12:21:49.742Z,14.63
2019-02-05T12:24:16.611Z,15.10
2019-02-05T12:26:45.715Z,15.40
2019-02-05T12:29:12.623Z,14.53
2019-02-05T12:31:39.584Z,17.10
2019-02-05T12:34:06.555Z,15.63
2019-02-05T12:36:33.515Z,15.13
2019-02-05T12:39:00.231Z,15.00
2019-02-05T12:41:27.491Z,15.20
2019-02-05T12:43:54.483Z,15.10
2019-02-05T12:46:21.691Z,15.47
2019-02-05T12:48:48.535Z,15.47
2019-02-05T12:51:15.595Z,15.97
2019-02-05T12:53:42.595Z,15.10
2019-02-05T12:56:09.510Z,16.63
2019-02-05T12:58:36.356Z,15.57
2019-02-05T13:01:03.796Z,13.43
2019-02-05T13:03:30.777Z,15.23
2019-02-05T13:05:57.571Z,15.40
2019-02-05T13:08:24.295Z,14.67
2019-02-05T13:10:51.703Z,15.47
2019-02-05T13:13:18.888Z,15.93
2019-02-05T13:15:45.817Z,17.98
2019-02-05T13:18:12.651Z,15.23
2019-02-05T13:20:40.007Z,16.43
2019-02-05T13:23:07.775Z,15.37
2019-02-05T13:25:34.851Z,16.07
2019-02-05T13:28:01.908Z,15.13
2019-02-05T13:30:30.047Z,15.43
2019-02-05T13:32:56.991Z,15.40
2019-02-05T13:35:24.184Z,15.10
2019-02-05T13:37:51.583Z,15.80
2019-02-05T13:40:20.881Z,15.20
2019-02-05T13:42:47.894Z,15.60
2019-02-05T13:45:16.679Z,15.57
2019-02-05T13:47:43.392Z,15.83
2019-02-05T13:50:14.111Z,16.60
2019-02-05T13:52:41.463Z,15.77
2019-02-05T13:55:11.424Z,14.30
2019-02-05T13:57:38.265Z,14.30
2019-02-05T14:00:09.775Z,16.37
2019-02-05T14:02:36.740Z,15.67
2019-02-05T14:05:05.408Z,15.50
2019-02-05T14:07:32.340Z,15.23
2019-02-05T14:09:59.559Z,15.67
2019-02-05T14:12:26.402Z,14.30
2019-02-05T14:14:53.143Z,15.50
2019-02-05T14:17:20.228Z,16.80
2019-02-05T14:19:46.938Z,15.10
2019-02-05T14:22:13.823Z,16.93
2019-02-05T14:24:40.679Z,15.53
2019-02-05T14:27:07.563Z,14.53
2019-02-05T14:29:34.820Z,15.60
2019-02-05T14:32:01.713Z,16.50
2019-02-05T14:34:28.679Z,14.70
2019-02-05T14:36:55.515Z,15.57
2019-02-05T14:39:22.597Z,16.47
2019-02-05T14:41:49.574Z,13.37
2019-02-05T14:44:16.515Z,13.77
2019-02-05T14:46:43.519Z,14.30
2019-02-05T14:49:10.466Z,14.30
2019-02-05T14:51:37.403Z,15.00
2019-02-05T14:54:04.354Z,14.33
2019-02-05T14:56:31.327Z,15.90
2019-02-05T14:58:58.044Z,14.47
2019-02-05T15:01:25.041Z,14.93
2019-02-05T15:03:51.884Z,14.27
2019-02-05T15:06:19.125Z,15.20
2019-02-05T15:08:46.127Z,15.23
2019-02-05T15:11:12.859Z,14.13
2019-02-05T15:13:39.584Z,14.33
2019-02-05T15:16:06.571Z,15.53
2019-02-05T15:18:33.483Z,14.57
2019-02-05T15:21:00.503Z,15.17
2019-02-05T15:23:27.354Z,15.37
2019-02-05T15:25:54.267Z,15.83
2019-02-05T15:28:21.130Z,16.20
2019-02-05T15:30:48.111Z,16.17
2019-02-05T15:33:41.279Z,15.67
2019-02-05T15:36:34.878Z,14.40
2019-02-05T15:39:03.607Z,15.40
2019-02-05T15:41:30.422Z,15.37
2019-02-05T15:43:57.379Z,15.27
2019-02-05T15:46:24.548Z,14.73
2019-02-05T15:48:51.392Z,14.37
2019-02-05T15:51:18.275Z,15.43
2019-02-05T15:53:45.106Z,15.30
2019-02-05T15:56:12.367Z,14.17
2019-02-05T15:58:39.095Z,14.80
2019-02-05T16:01:06.349Z,14.20
2019-02-05T16:03:33.288Z,14.53
2019-02-05T16:06:00.539Z,15.57
2019-02-05T16:08:27.428Z,15.27
2019-02-05T16:10:54.243Z,17.10
2019-02-05T16:13:21.164Z,16.43
2019-02-05T16:15:47.904Z,19.90
2019-02-05T16:18:14.664Z,14.60
2019-02-05T16:20:41.898Z,16.13
2019-02-05T16:23:09.015Z,14.53
2019-02-05T16:25:36.264Z,15.60
2019-02-05T16:28:03.763Z,15.37
2019-02-05T16:30:30.490Z,14.87
2019-02-05T16:32:57.365Z,14.73
2019-02-05T16:35:24.451Z,14.77
2019-02-05T16:37:51.943Z,15.43
2019-02-05T16:40:23.214Z,14.63
2019-02-05T16:42:50.451Z,13.67
2019-02-05T16:45:19.664Z,14.17
2019-02-05T16:47:46.495Z,15.80
2019-02-05T16:50:21.811Z,15.83
2019-02-05T16:52:49.148Z,15.10
2019-02-05T16:55:16.019Z,14.33
2019-02-05T16:57:43.067Z,14.73
2019-02-05T17:00:14.183Z,14.57
2019-02-05T17:02:41.036Z,14.53
2019-02-05T17:05:08.292Z,19.67
2019-02-05T17:07:35.294Z,15.83
2019-02-05T17:10:02.307Z,14.47
2019-02-05T17:12:29.177Z,14.83
2019-02-05T17:14:56.176Z,15.07
2019-02-05T17:17:23.123Z,15.37
2019-02-05T17:19:49.834Z,15.37
2019-02-05T17:22:16.831Z,15.10
2019-02-05T17:24:43.849Z,16.60
2019-02-05T17:27:10.874Z,15.97
2019-02-05T17:29:37.855Z,15.23
2019-02-05T17:32:07.678Z,16.10
2019-02-05T17:34:33.555Z,19.23
2019-02-05T17:37:00.507Z,17.60
2019-02-05T17:39:27.443Z,15.67
2019-02-05T17:41:54.271Z,15.13
2019-02-05T17:44:21.023Z,16.57
2019-02-05T17:46:47.907Z,16.60
2019-02-05T17:49:14.732Z,14.73
2019-02-05T17:51:41.555Z,15.60
2019-02-05T17:54:08.771Z,15.67
2019-02-05T17:56:35.839Z,16.17
2019-02-05T17:59:02.817Z,15.57
2019-02-05T18:01:30.055Z,16.87
2019-02-05T18:03:56.961Z,19.57
2019-02-05T18:06:23.805Z,17.10
2019-02-05T18:08:50.703Z,16.63
2019-02-05T18:11:17.506Z,16.67
2019-02-05T18:13:49.360Z,15.90
2019-02-05T18:16:17.592Z,15.07
2019-02-05T18:18:44.608Z,15.73
2019-02-05T18:21:11.867Z,16.57
2019-02-05T18:23:39.046Z,16.00
2019-02-05T18:26:06.083Z,15.30
2019-02-05T18:28:33.490Z,15.17
2019-02-05T18:31:00.331Z,16.27
2019-02-05T18:33:27.587Z,15.67
2019-02-05T18:35:54.449Z,16.00
2019-02-05T18:38:21.173Z,17.13
2019-02-05T18:40:47.875Z,16.47
2019-02-05T18:43:14.851Z,16.00
2019-02-05T18:45:41.987Z,14.80
2019-02-05T18:48:09.328Z,16.10
2019-02-05T18:50:36.343Z,16.60
2019-02-05T18:53:03.561Z,15.70
2019-02-05T18:55:31.142Z,17.17
2019-02-05T18:58:08.402Z,17.53
2019-02-05T19:00:28.939Z,16.53
2019-02-05T19:02:55.902Z,16.67
2019-02-05T19:05:23.908Z,16.27
2019-02-05T19:07:50.940Z,15.30
2019-02-05T19:10:19.336Z,16.73
2019-02-05T19:12:46.155Z,14.97
2019-02-05T19:15:18.187Z,15.90
2019-02-05T19:17:45.147Z,16.77
2019-02-05T19:20:12.687Z,16.83
2019-02-05T19:22:40.047Z,16.07
2019-02-05T19:25:27.245Z,17.07
2019-02-05T19:27:53.955Z,16.90
2019-02-05T19:30:22.787Z,17.90
2019-02-05T19:32:49.646Z,18.20
2019-02-05T19:35:16.789Z,17.90
2019-02-05T19:37:43.755Z,17.90
2019-02-05T19:40:10.903Z,19.53
2019-02-05T19:42:37.911Z,18.23
2019-02-05T19:45:34.056Z,18.10
2019-02-05T19:48:02.230Z,17.13
2019-02-05T19:50:28.964Z,18.67
2019-02-05T19:52:57.217Z,16.80
2019-02-05T19:55:24.159Z,17.23
2019-02-05T19:57:52.485Z,16.50
2019-02-05T20:00:19.891Z,16.50
2019-02-05T20:02:46.855Z,17.47
2019-02-05T20:05:14.090Z,16.70
2019-02-05T20:07:40.970Z,16.63
2019-02-05T20:10:08.478Z,18.27
2019-02-05T20:12:35.235Z,18.43
2019-02-05T20:15:03.276Z,18.33
2019-02-05T20:17:30.199Z,18.07
2019-02-05T20:19:57.074Z,17.90
2019-02-05T20:22:23.925Z,18.30
2019-02-05T20:24:50.656Z,17.50
2019-02-05T20:27:17.651Z,18.47
2019-02-05T20:29:45.003Z,17.00
2019-02-05T20:32:11.848Z,18.10
2019-02-05T20:34:38.695Z,20.23
2019-02-05T20:37:05.671Z,19.60
2019-02-05T20:39:32.544Z,19.17
2019-02-05T20:41:59.401Z,18.40
2019-02-05T20:44:26.423Z,17.37
2019-02-05T20:46:53.196Z,17.73
2019-02-05T20:49:20.082Z,18.63
2019-02-05T20:51:47.118Z,19.10
2019-02-05T20:54:13.958Z,17.87
2019-02-05T20:56:40.663Z,17.57
2019-02-05T20:59:07.764Z,18.43
2019-02-05T21:01:34.726Z,18.60
2019-02-05T21:04:04.858Z,18.27
2019-02-05T21:06:31.735Z,17.10
2019-02-05T21:08:58.494Z,18.87
2019-02-05T21:11:25.527Z,18.67
2019-02-05T21:13:52.453Z,18.63
2019-02-05T21:16:19.334Z,18.90
2019-02-05T21:18:46.310Z,18.20
2019-02-05T21:21:13.791Z,18.30
2019-02-05T21:23:40.616Z,29.65
2019-02-05T21:26:07.470Z,25.27
2019-02-05T21:28:34.227Z,23.93
2019-02-05T21:31:01.580Z,21.73
2019-02-05T21:33:28.327Z,26.13
2019-02-05T21:35:55.238Z,27.63
2019-02-05T21:38:22.131Z,34.90
2019-02-05T21:40:48.980Z,26.30
2019-02-05T21:43:15.699Z,27.53
2019-02-05T21:45:43.223Z,26.03
2019-02-05T21:48:10.227Z,30.87
2019-02-05T21:50:37.279Z,26.00
2019-02-05T21:53:04.483Z,21.87
2019-02-05T21:55:31.343Z,20.70
2019-02-05T21:57:58.069Z,18.53
2019-02-05T22:00:27.572Z,17.27
2019-02-05T22:02:54.896Z,17.93
2019-02-05T22:05:22.201Z,17.27
2019-02-05T22:07:49.285Z,15.73
2019-02-05T22:10:16.951Z,17.00
2019-02-05T22:12:43.905Z,16.73
2019-02-05T22:15:11.659Z,17.70
2019-02-05T22:17:38.399Z,16.73
2019-02-05T22:20:08.195Z,16.07
2019-02-05T22:22:35.174Z,16.83
2019-02-05T22:25:03.939Z,16.70
2019-02-05T22:27:30.816Z,15.90
2019-02-05T22:29:57.551Z,16.63
2019-02-05T22:32:24.735Z,16.07
2019-02-05T22:34:51.566Z,16.47
2019-02-05T22:37:18.547Z,15.83
2019-02-05T22:39:45.415Z,16.93
2019-02-05T22:42:12.279Z,15.90
2019-02-05T22:44:39.627Z,16.03
2019-02-05T22:47:06.627Z,16.13
2019-02-05T22:49:33.717Z,17.00
2019-02-05T22:52:00.717Z,17.17
2019-02-05T22:54:27.631Z,16.43
2019-02-05T22:56:54.511Z,16.40
2019-02-05T22:59:21.880Z,17.10
2019-02-05T23:01:52.331Z,15.93
2019-02-05T23:04:50.766Z,16.07
2019-02-05T23:07:18.123Z,15.90
2019-02-05T23:10:27.079Z,15.70
2019-02-05T23:12:59.951Z,16.63
2019-02-05T23:15:29.082Z,16.27
2019-02-05T23:17:56.370Z,14.57
2019-02-05T23:20:23.567Z,15.53
2019-02-05T23:22:50.674Z,16.10
2019-02-05T23:25:17.704Z,15.87
2019-02-05T23:27:44.791Z,15.27
2019-02-05T23:30:20.543Z,15.37
2019-02-05T23:32:47.499Z,18.50
2019-02-05T23:35:15.016Z,17.57
2019-02-05T23:37:42.332Z,16.57
2019-02-05T23:40:09.704Z,15.60
2019-02-05T23:42:36.736Z,17.57
2019-02-05T23:45:05.481Z,15.70
2019-02-05T23:47:32.491Z,16.33
2019-02-05T23:49:59.262Z,15.83
2019-02-05T23:52:26.371Z,17.80
2019-02-05T23:54:53.123Z,16.27
2019-02-05T23:57:20.344Z,16.27
2019-02-05T23:59:47.217Z,16.33
